sensor_id;sensor_type;location;lat;lon;timestamp;temperature;humidity
56729;DHT22;42612;52.232;7.560;2023-11-21T00:00:18;11.80;62.30
56729;DHT22;42612;52.232;7.560;2023-11-21T00:02:44;11.80;62.40
56729;DHT22;42612;52.232;7.560;2023-11-21T00:05:14;11.80;62.40
56729;DHT22;42612;52.232;7.560;2023-11-21T00:07:40;11.80;62.60
56729;DHT22;42612;52.232;7.560;2023-11-21T00:10:07;11.80;62.60
56729;DHT22;42612;52.232;7.560;2023-11-21T00:12:35;11.80;62.60
56729;DHT22;42612;52.232;7.560;2023-11-21T00:15:01;11.90;62.70
56729;DHT22;42612;52.232;7.560;2023-11-21T00:17:27;11.90;62.70
56729;DHT22;42612;52.232;7.560;2023-11-21T00:19:53;11.90;62.80
56729;DHT22;42612;52.232;7.560;2023-11-21T00:22:19;11.90;62.80
56729;DHT22;42612;52.232;7.560;2023-11-21T00:24:46;11.90;62.80
56729;DHT22;42612;52.232;7.560;2023-11-21T00:27:12;11.90;62.80
56729;DHT22;42612;52.232;7.560;2023-11-21T00:29:38;11.90;62.90
56729;DHT22;42612;52.232;7.560;2023-11-21T00:32:04;11.90;62.90
56729;DHT22;42612;52.232;7.560;2023-11-21T00:34:31;12.00;63.10
56729;DHT22;42612;52.232;7.560;2023-11-21T00:36:58;12.00;63.10
56729;DHT22;42612;52.232;7.560;2023-11-21T00:39:24;12.00;63.10
56729;DHT22;42612;52.232;7.560;2023-11-21T00:41:51;12.00;63.80
56729;DHT22;42612;52.232;7.560;2023-11-21T00:44:17;12.00;63.20
56729;DHT22;42612;52.232;7.560;2023-11-21T00:46:43;12.00;63.30
56729;DHT22;42612;52.232;7.560;2023-11-21T00:49:08;12.00;63.30
56729;DHT22;42612;52.232;7.560;2023-11-21T00:51:34;12.00;63.40
56729;DHT22;42612;52.232;7.560;2023-11-21T00:54:00;12.10;63.50
56729;DHT22;42612;52.232;7.560;2023-11-21T00:56:26;12.10;63.50
56729;DHT22;42612;52.232;7.560;2023-11-21T00:58:52;12.10;63.50
56729;DHT22;42612;52.232;7.560;2023-11-21T01:01:19;12.10;63.50
56729;DHT22;42612;52.232;7.560;2023-11-21T01:03:46;12.10;63.60
56729;DHT22;42612;52.232;7.560;2023-11-21T01:06:12;12.10;63.70
56729;DHT22;42612;52.232;7.560;2023-11-21T01:08:37;12.10;63.80
56729;DHT22;42612;52.232;7.560;2023-11-21T01:11:04;12.20;63.80
56729;DHT22;42612;52.232;7.560;2023-11-21T01:13:30;12.20;63.90
56729;DHT22;42612;52.232;7.560;2023-11-21T01:15:57;12.20;63.90
56729;DHT22;42612;52.232;7.560;2023-11-21T01:18:22;12.20;64.00
56729;DHT22;42612;52.232;7.560;2023-11-21T01:20:51;12.20;63.90
56729;DHT22;42612;52.232;7.560;2023-11-21T01:23:18;12.30;64.00
56729;DHT22;42612;52.232;7.560;2023-11-21T01:25:44;12.30;64.00
56729;DHT22;42612;52.232;7.560;2023-11-21T01:28:10;12.30;64.00
56729;DHT22;42612;52.232;7.560;2023-11-21T01:30:36;12.30;64.00
56729;DHT22;42612;52.232;7.560;2023-11-21T01:33:01;12.40;64.10
56729;DHT22;42612;52.232;7.560;2023-11-21T01:35:27;12.40;64.10
56729;DHT22;42612;52.232;7.560;2023-11-21T01:37:53;12.40;64.10
56729;DHT22;42612;52.232;7.560;2023-11-21T01:40:18;12.40;64.10
56729;DHT22;42612;52.232;7.560;2023-11-21T01:42:45;12.40;64.10
56729;DHT22;42612;52.232;7.560;2023-11-21T01:45:12;12.40;64.20
56729;DHT22;42612;52.232;7.560;2023-11-21T01:47:38;12.40;64.10
56729;DHT22;42612;52.232;7.560;2023-11-21T01:50:12;12.40;64.10
56729;DHT22;42612;52.232;7.560;2023-11-21T01:52:40;12.50;64.20
56729;DHT22;42612;52.232;7.560;2023-11-21T01:55:07;12.50;64.30
56729;DHT22;42612;52.232;7.560;2023-11-21T01:57:35;12.50;64.30
56729;DHT22;42612;52.232;7.560;2023-11-21T02:00:03;12.50;64.30
56729;DHT22;42612;52.232;7.560;2023-11-21T02:02:44;12.50;64.20
56729;DHT22;42612;52.232;7.560;2023-11-21T02:05:11;12.50;64.30
56729;DHT22;42612;52.232;7.560;2023-11-21T02:07:41;12.50;64.20
56729;DHT22;42612;52.232;7.560;2023-11-21T02:10:08;12.50;64.30
56729;DHT22;42612;52.232;7.560;2023-11-21T02:12:35;12.50;64.30
56729;DHT22;42612;52.232;7.560;2023-11-21T02:15:04;12.60;64.30
56729;DHT22;42612;52.232;7.560;2023-11-21T02:17:35;12.50;64.40
56729;DHT22;42612;52.232;7.560;2023-11-21T02:20:02;12.50;64.30
56729;DHT22;42612;52.232;7.560;2023-11-21T02:22:30;12.60;64.40
56729;DHT22;42612;52.232;7.560;2023-11-21T02:24:58;12.60;64.40
56729;DHT22;42612;52.232;7.560;2023-11-21T02:27:24;12.60;64.40
56729;DHT22;42612;52.232;7.560;2023-11-21T02:29:50;12.60;64.50
56729;DHT22;42612;52.232;7.560;2023-11-21T02:32:16;12.60;64.50
56729;DHT22;42612;52.232;7.560;2023-11-21T02:34:44;12.60;64.50
56729;DHT22;42612;52.232;7.560;2023-11-21T02:37:10;12.60;64.50
56729;DHT22;42612;52.232;7.560;2023-11-21T02:39:36;12.60;64.50
56729;DHT22;42612;52.232;7.560;2023-11-21T02:42:01;12.60;64.50
56729;DHT22;42612;52.232;7.560;2023-11-21T02:44:27;12.60;64.50
56729;DHT22;42612;52.232;7.560;2023-11-21T02:46:53;12.60;64.60
56729;DHT22;42612;52.232;7.560;2023-11-21T02:49:18;12.60;65.30
56729;DHT22;42612;52.232;7.560;2023-11-21T02:51:44;12.60;64.70
56729;DHT22;42612;52.232;7.560;2023-11-21T02:54:11;12.70;64.80
56729;DHT22;42612;52.232;7.560;2023-11-21T02:56:37;12.70;64.90
56729;DHT22;42612;52.232;7.560;2023-11-21T02:59:03;12.70;64.90
56729;DHT22;42612;52.232;7.560;2023-11-21T03:01:28;12.70;64.90
56729;DHT22;42612;52.232;7.560;2023-11-21T03:03:54;12.70;65.00
56729;DHT22;42612;52.232;7.560;2023-11-21T03:06:21;12.70;65.00
56729;DHT22;42612;52.232;7.560;2023-11-21T03:08:47;12.70;65.00
56729;DHT22;42612;52.232;7.560;2023-11-21T03:11:13;12.70;65.10
56729;DHT22;42612;52.232;7.560;2023-11-21T03:13:40;12.70;65.10
56729;DHT22;42612;52.232;7.560;2023-11-21T03:16:09;12.70;65.10
56729;DHT22;42612;52.232;7.560;2023-11-21T03:18:38;12.70;65.10
56729;DHT22;42612;52.232;7.560;2023-11-21T03:21:05;12.70;65.20
56729;DHT22;42612;52.232;7.560;2023-11-21T03:23:31;12.80;65.20
56729;DHT22;42612;52.232;7.560;2023-11-21T03:25:57;12.80;65.30
56729;DHT22;42612;52.232;7.560;2023-11-21T03:28:25;12.80;65.30
56729;DHT22;42612;52.232;7.560;2023-11-21T03:30:52;12.80;66.00
56729;DHT22;42612;52.232;7.560;2023-11-21T03:33:17;12.80;65.30
56729;DHT22;42612;52.232;7.560;2023-11-21T03:35:43;12.80;65.40
56729;DHT22;42612;52.232;7.560;2023-11-21T03:38:10;12.80;65.40
56729;DHT22;42612;52.232;7.560;2023-11-21T03:40:36;12.80;65.40
56729;DHT22;42612;52.232;7.560;2023-11-21T03:43:02;12.80;65.50
56729;DHT22;42612;52.232;7.560;2023-11-21T03:45:28;12.80;65.50
56729;DHT22;42612;52.232;7.560;2023-11-21T03:47:54;12.80;65.60
56729;DHT22;42612;52.232;7.560;2023-11-21T03:50:19;12.90;65.60
56729;DHT22;42612;52.232;7.560;2023-11-21T03:52:45;12.80;65.60
56729;DHT22;42612;52.232;7.560;2023-11-21T03:55:11;12.80;65.60
56729;DHT22;42612;52.232;7.560;2023-11-21T03:57:36;12.80;65.60
56729;DHT22;42612;52.232;7.560;2023-11-21T04:00:03;12.90;65.70
56729;DHT22;42612;52.232;7.560;2023-11-21T04:02:33;12.90;65.70
56729;DHT22;42612;52.232;7.560;2023-11-21T04:04:59;12.90;65.70
56729;DHT22;42612;52.232;7.560;2023-11-21T04:07:25;12.90;65.70
56729;DHT22;42612;52.232;7.560;2023-11-21T04:09:51;12.90;65.70
56729;DHT22;42612;52.232;7.560;2023-11-21T04:12:17;12.90;65.70
56729;DHT22;42612;52.232;7.560;2023-11-21T04:14:42;12.90;65.70
56729;DHT22;42612;52.232;7.560;2023-11-21T04:17:08;12.80;65.70
56729;DHT22;42612;52.232;7.560;2023-11-21T04:19:34;12.90;65.70
56729;DHT22;42612;52.232;7.560;2023-11-21T04:22:00;12.90;65.80
56729;DHT22;42612;52.232;7.560;2023-11-21T04:24:26;12.90;65.80
56729;DHT22;42612;52.232;7.560;2023-11-21T04:26:52;12.90;65.80
56729;DHT22;42612;52.232;7.560;2023-11-21T04:29:18;13.00;65.90
56729;DHT22;42612;52.232;7.560;2023-11-21T04:31:44;12.90;65.80
56729;DHT22;42612;52.232;7.560;2023-11-21T04:34:10;12.90;65.80
56729;DHT22;42612;52.232;7.560;2023-11-21T04:36:35;12.90;65.80
56729;DHT22;42612;52.232;7.560;2023-11-21T04:39:01;12.90;65.80
56729;DHT22;42612;52.232;7.560;2023-11-21T04:41:27;13.00;65.80
56729;DHT22;42612;52.232;7.560;2023-11-21T04:43:53;13.00;66.50
56729;DHT22;42612;52.232;7.560;2023-11-21T04:46:18;13.00;65.80
56729;DHT22;42612;52.232;7.560;2023-11-21T04:48:44;13.00;65.80
56729;DHT22;42612;52.232;7.560;2023-11-21T04:51:10;13.00;65.80
56729;DHT22;42612;52.232;7.560;2023-11-21T04:53:38;13.00;65.70
56729;DHT22;42612;52.232;7.560;2023-11-21T04:56:05;13.00;65.70
56729;DHT22;42612;52.232;7.560;2023-11-21T04:58:31;13.00;65.70
56729;DHT22;42612;52.232;7.560;2023-11-21T05:00:57;13.00;65.80
56729;DHT22;42612;52.232;7.560;2023-11-21T05:03:23;13.00;65.70
56729;DHT22;42612;52.232;7.560;2023-11-21T05:05:49;13.00;65.70
56729;DHT22;42612;52.232;7.560;2023-11-21T05:08:15;13.00;65.70
56729;DHT22;42612;52.232;7.560;2023-11-21T05:10:40;13.00;65.80
56729;DHT22;42612;52.232;7.560;2023-11-21T05:13:06;13.10;65.80
56729;DHT22;42612;52.232;7.560;2023-11-21T05:15:35;13.10;65.80
56729;DHT22;42612;52.232;7.560;2023-11-21T05:18:01;13.00;65.70
56729;DHT22;42612;52.232;7.560;2023-11-21T05:20:27;13.10;65.90
56729;DHT22;42612;52.232;7.560;2023-11-21T05:22:53;13.10;65.90
56729;DHT22;42612;52.232;7.560;2023-11-21T05:25:19;13.10;65.90
56729;DHT22;42612;52.232;7.560;2023-11-21T05:27:47;13.10;65.90
56729;DHT22;42612;52.232;7.560;2023-11-21T05:30:14;13.10;65.90
56729;DHT22;42612;52.232;7.560;2023-11-21T05:32:40;13.10;65.90
56729;DHT22;42612;52.232;7.560;2023-11-21T05:35:10;13.10;65.90
56729;DHT22;42612;52.232;7.560;2023-11-21T05:37:40;13.10;65.90
56729;DHT22;42612;52.232;7.560;2023-11-21T05:40:08;13.10;65.80
56729;DHT22;42612;52.232;7.560;2023-11-21T05:42:35;13.10;65.80
56729;DHT22;42612;52.232;7.560;2023-11-21T05:45:01;13.10;65.80
56729;DHT22;42612;52.232;7.560;2023-11-21T05:47:39;13.10;65.80
56729;DHT22;42612;52.232;7.560;2023-11-21T05:50:08;13.10;65.80
56729;DHT22;42612;52.232;7.560;2023-11-21T05:52:38;13.10;65.70
56729;DHT22;42612;52.232;7.560;2023-11-21T05:55:07;13.10;65.70
56729;DHT22;42612;52.232;7.560;2023-11-21T05:57:34;13.00;65.70
56729;DHT22;42612;52.232;7.560;2023-11-21T06:00:14;13.00;65.90
56729;DHT22;42612;52.232;7.560;2023-11-21T06:02:40;13.00;66.10
56729;DHT22;42612;52.232;7.560;2023-11-21T06:05:07;13.00;66.00
56729;DHT22;42612;52.232;7.560;2023-11-21T06:07:34;13.00;66.00
56729;DHT22;42612;52.232;7.560;2023-11-21T06:10:01;13.00;66.10
56729;DHT22;42612;52.232;7.560;2023-11-21T06:12:31;13.00;66.10
56729;DHT22;42612;52.232;7.560;2023-11-21T06:15:03;13.00;66.80
56729;DHT22;42612;52.232;7.560;2023-11-21T06:17:31;13.00;66.10
56729;DHT22;42612;52.232;7.560;2023-11-21T06:19:57;13.00;66.10
56729;DHT22;42612;52.232;7.560;2023-11-21T06:22:22;13.00;66.10
56729;DHT22;42612;52.232;7.560;2023-11-21T06:24:48;13.00;66.10
56729;DHT22;42612;52.232;7.560;2023-11-21T06:27:14;13.00;66.10
56729;DHT22;42612;52.232;7.560;2023-11-21T06:29:41;13.00;66.20
56729;DHT22;42612;52.232;7.560;2023-11-21T06:32:07;13.00;66.20
56729;DHT22;42612;52.232;7.560;2023-11-21T06:34:33;13.00;66.20
56729;DHT22;42612;52.232;7.560;2023-11-21T06:36:59;13.00;66.20
56729;DHT22;42612;52.232;7.560;2023-11-21T06:39:25;13.00;66.30
56729;DHT22;42612;52.232;7.560;2023-11-21T06:41:50;13.00;66.30
56729;DHT22;42612;52.232;7.560;2023-11-21T06:44:16;13.00;66.20
56729;DHT22;42612;52.232;7.560;2023-11-21T06:46:42;13.00;66.30
56729;DHT22;42612;52.232;7.560;2023-11-21T06:49:08;13.00;66.30
56729;DHT22;42612;52.232;7.560;2023-11-21T06:51:34;13.10;66.30
56729;DHT22;42612;52.232;7.560;2023-11-21T06:54:00;13.00;66.30
56729;DHT22;42612;52.232;7.560;2023-11-21T06:56:25;13.10;66.30
56729;DHT22;42612;52.232;7.560;2023-11-21T06:58:51;13.00;66.30
56729;DHT22;42612;52.232;7.560;2023-11-21T07:01:19;13.10;66.40
56729;DHT22;42612;52.232;7.560;2023-11-21T07:03:45;13.10;66.40
56729;DHT22;42612;52.232;7.560;2023-11-21T07:06:11;13.10;66.40
56729;DHT22;42612;52.232;7.560;2023-11-21T07:08:37;13.10;66.40
56729;DHT22;42612;52.232;7.560;2023-11-21T07:11:03;13.10;66.40
56729;DHT22;42612;52.232;7.560;2023-11-21T07:13:30;13.10;66.40
56729;DHT22;42612;52.232;7.560;2023-11-21T07:15:57;13.10;66.30
56729;DHT22;42612;52.232;7.560;2023-11-21T07:18:24;13.10;66.30
56729;DHT22;42612;52.232;7.560;2023-11-21T07:20:49;13.10;66.30
56729;DHT22;42612;52.232;7.560;2023-11-21T07:23:15;13.10;66.30
56729;DHT22;42612;52.232;7.560;2023-11-21T07:25:41;13.10;66.40
56729;DHT22;42612;52.232;7.560;2023-11-21T07:28:08;13.10;66.40
56729;DHT22;42612;52.232;7.560;2023-11-21T07:30:34;13.10;66.40
56729;DHT22;42612;52.232;7.560;2023-11-21T07:33:00;13.10;66.40
56729;DHT22;42612;52.232;7.560;2023-11-21T07:35:26;13.10;66.40
56729;DHT22;42612;52.232;7.560;2023-11-21T07:37:52;13.10;66.30
56729;DHT22;42612;52.232;7.560;2023-11-21T07:40:17;13.20;66.40
56729;DHT22;42612;52.232;7.560;2023-11-21T07:42:43;13.10;66.40
56729;DHT22;42612;52.232;7.560;2023-11-21T07:45:09;13.20;66.40
56729;DHT22;42612;52.232;7.560;2023-11-21T07:47:35;13.20;66.50
56729;DHT22;42612;52.232;7.560;2023-11-21T07:50:04;13.20;66.50
56729;DHT22;42612;52.232;7.560;2023-11-21T07:52:30;13.20;66.60
56729;DHT22;42612;52.232;7.560;2023-11-21T07:54:56;13.20;66.50
56729;DHT22;42612;52.232;7.560;2023-11-21T07:57:21;13.20;66.50
56729;DHT22;42612;52.232;7.560;2023-11-21T07:59:47;13.20;66.50
56729;DHT22;42612;52.232;7.560;2023-11-21T08:02:13;13.20;66.50
56729;DHT22;42612;52.232;7.560;2023-11-21T08:04:38;13.20;66.50
56729;DHT22;42612;52.232;7.560;2023-11-21T08:07:04;13.20;66.50
56729;DHT22;42612;52.232;7.560;2023-11-21T08:09:30;13.20;66.50
56729;DHT22;42612;52.232;7.560;2023-11-21T08:11:55;13.20;66.50
56729;DHT22;42612;52.232;7.560;2023-11-21T08:14:22;13.20;66.50
56729;DHT22;42612;52.232;7.560;2023-11-21T08:16:50;13.20;66.50
56729;DHT22;42612;52.232;7.560;2023-11-21T08:19:16;13.20;66.60
56729;DHT22;42612;52.232;7.560;2023-11-21T08:21:43;13.20;66.50
56729;DHT22;42612;52.232;7.560;2023-11-21T08:24:10;13.20;66.50
56729;DHT22;42612;52.232;7.560;2023-11-21T08:26:37;13.20;66.50
56729;DHT22;42612;52.232;7.560;2023-11-21T08:29:03;13.20;66.50
56729;DHT22;42612;52.232;7.560;2023-11-21T08:31:29;13.20;66.50
56729;DHT22;42612;52.232;7.560;2023-11-21T08:33:55;13.20;66.50
56729;DHT22;42612;52.232;7.560;2023-11-21T08:36:21;13.20;66.40
56729;DHT22;42612;52.232;7.560;2023-11-21T08:38:49;13.20;66.40
56729;DHT22;42612;52.232;7.560;2023-11-21T08:41:17;13.20;66.50
56729;DHT22;42612;52.232;7.560;2023-11-21T08:43:43;13.10;66.50
56729;DHT22;42612;52.232;7.560;2023-11-21T08:46:10;13.10;66.40
56729;DHT22;42612;52.232;7.560;2023-11-21T08:48:36;13.20;66.60
56729;DHT22;42612;52.232;7.560;2023-11-21T08:51:03;13.10;66.60
56729;DHT22;42612;52.232;7.560;2023-11-21T08:53:29;13.10;66.70
56729;DHT22;42612;52.232;7.560;2023-11-21T08:55:56;13.10;66.80
56729;DHT22;42612;52.232;7.560;2023-11-21T08:58:22;13.00;66.90
56729;DHT22;42612;52.232;7.560;2023-11-21T09:00:48;13.00;66.90
56729;DHT22;42612;52.232;7.560;2023-11-21T09:03:13;13.00;67.10
56729;DHT22;42612;52.232;7.560;2023-11-21T09:05:39;13.00;67.20
56729;DHT22;42612;52.232;7.560;2023-11-21T09:08:05;13.00;67.20
56729;DHT22;42612;52.232;7.560;2023-11-21T09:10:33;13.00;67.20
56729;DHT22;42612;52.232;7.560;2023-11-21T09:13:01;13.00;67.30
56729;DHT22;42612;52.232;7.560;2023-11-21T09:15:27;12.90;67.40
56729;DHT22;42612;52.232;7.560;2023-11-21T09:17:53;12.90;67.40
56729;DHT22;42612;52.232;7.560;2023-11-21T09:20:18;12.90;67.50
56729;DHT22;42612;52.232;7.560;2023-11-21T09:22:48;12.80;67.50
56729;DHT22;42612;52.232;7.560;2023-11-21T09:25:14;12.80;67.60
56729;DHT22;42612;52.232;7.560;2023-11-21T09:27:40;12.80;67.70
56729;DHT22;42612;52.232;7.560;2023-11-21T09:30:07;12.80;67.70
56729;DHT22;42612;52.232;7.560;2023-11-21T09:32:37;12.80;67.90
56729;DHT22;42612;52.232;7.560;2023-11-21T09:35:04;12.80;67.90
56729;DHT22;42612;52.232;7.560;2023-11-21T09:37:31;12.70;67.80
56729;DHT22;42612;52.232;7.560;2023-11-21T09:39:57;12.70;67.90
56729;DHT22;42612;52.232;7.560;2023-11-21T09:42:33;12.70;68.00
56729;DHT22;42612;52.232;7.560;2023-11-21T09:47:57;12.70;68.90
56729;DHT22;42612;52.232;7.560;2023-11-21T09:50:24;12.70;68.30
56729;DHT22;42612;52.232;7.560;2023-11-21T09:55:25;12.70;68.80
56729;DHT22;42612;52.232;7.560;2023-11-21T09:57:54;12.70;68.70
56729;DHT22;42612;52.232;7.560;2023-11-21T10:00:22;12.80;68.80
56729;DHT22;42612;52.232;7.560;2023-11-21T10:02:52;12.80;68.80
56729;DHT22;42612;52.232;7.560;2023-11-21T10:05:18;12.80;68.80
56729;DHT22;42612;52.232;7.560;2023-11-21T10:07:48;12.90;68.80
56729;DHT22;42612;52.232;7.560;2023-11-21T10:10:18;12.90;68.80
56729;DHT22;42612;52.232;7.560;2023-11-21T10:12:49;12.90;68.80
56729;DHT22;42612;52.232;7.560;2023-11-21T10:15:21;13.00;68.90
56729;DHT22;42612;52.232;7.560;2023-11-21T10:17:49;13.00;68.70
56729;DHT22;42612;52.232;7.560;2023-11-21T10:20:15;13.00;68.50
56729;DHT22;42612;52.232;7.560;2023-11-21T10:22:42;13.10;68.90
56729;DHT22;42612;52.232;7.560;2023-11-21T10:25:37;13.00;68.20
56729;DHT22;42612;52.232;7.560;2023-11-21T10:28:04;13.00;68.20
56729;DHT22;42612;52.232;7.560;2023-11-21T10:30:37;13.00;68.20
56729;DHT22;42612;52.232;7.560;2023-11-21T10:33:04;13.00;68.20
56729;DHT22;42612;52.232;7.560;2023-11-21T10:35:47;13.00;68.20
56729;DHT22;42612;52.232;7.560;2023-11-21T10:38:17;13.00;68.80
56729;DHT22;42612;52.232;7.560;2023-11-21T10:40:44;12.90;68.30
56729;DHT22;42612;52.232;7.560;2023-11-21T10:43:11;13.00;68.40
56729;DHT22;42612;52.232;7.560;2023-11-21T10:45:41;13.00;68.40
56729;DHT22;42612;52.232;7.560;2023-11-21T10:48:13;13.00;68.40
56729;DHT22;42612;52.232;7.560;2023-11-21T10:50:43;13.00;68.40
56729;DHT22;42612;52.232;7.560;2023-11-21T10:53:10;13.00;68.30
56729;DHT22;42612;52.232;7.560;2023-11-21T10:55:37;13.00;68.30
56729;DHT22;42612;52.232;7.560;2023-11-21T10:58:04;13.00;68.30
56729;DHT22;42612;52.232;7.560;2023-11-21T11:00:31;13.00;68.30
56729;DHT22;42612;52.232;7.560;2023-11-21T11:02:58;13.00;68.60
56729;DHT22;42612;52.232;7.560;2023-11-21T11:05:26;13.00;68.00
56729;DHT22;42612;52.232;7.560;2023-11-21T11:08:05;13.00;68.10
56729;DHT22;42612;52.232;7.560;2023-11-21T11:10:32;13.00;68.40
56729;DHT22;42612;52.232;7.560;2023-11-21T11:12:58;13.00;68.10
56729;DHT22;42612;52.232;7.560;2023-11-21T11:15:25;13.00;67.90
56729;DHT22;42612;52.232;7.560;2023-11-21T11:17:52;13.10;67.70
56729;DHT22;42612;52.232;7.560;2023-11-21T11:20:23;13.10;67.60
56729;DHT22;42612;52.232;7.560;2023-11-21T11:28:19;13.10;67.60
56729;DHT22;42612;52.232;7.560;2023-11-21T11:33:34;13.10;67.70
56729;DHT22;42612;52.232;7.560;2023-11-21T11:38:38;13.20;67.40
56729;DHT22;42612;52.232;7.560;2023-11-21T11:41:06;13.20;67.30
56729;DHT22;42612;52.232;7.560;2023-11-21T11:43:32;13.20;67.20
56729;DHT22;42612;52.232;7.560;2023-11-21T11:46:03;13.20;67.10
56729;DHT22;42612;52.232;7.560;2023-11-21T11:48:29;13.20;67.10
56729;DHT22;42612;52.232;7.560;2023-11-21T11:51:02;13.20;67.00
56729;DHT22;42612;52.232;7.560;2023-11-21T11:53:41;13.20;66.80
56729;DHT22;42612;52.232;7.560;2023-11-21T11:56:28;13.20;66.90
56729;DHT22;42612;52.232;7.560;2023-11-21T11:59:00;13.20;66.80
56729;DHT22;42612;52.232;7.560;2023-11-21T12:01:33;13.20;66.80
56729;DHT22;42612;52.232;7.560;2023-11-21T12:06:41;13.30;66.60
56729;DHT22;42612;52.232;7.560;2023-11-21T12:09:09;13.20;66.60
56729;DHT22;42612;52.232;7.560;2023-11-21T12:11:43;13.30;66.70
56729;DHT22;42612;52.232;7.560;2023-11-21T12:14:09;13.30;66.50
56729;DHT22;42612;52.232;7.560;2023-11-21T12:16:35;13.20;66.40
56729;DHT22;42612;52.232;7.560;2023-11-21T12:19:01;13.30;66.40
56729;DHT22;42612;52.232;7.560;2023-11-21T12:21:27;13.20;66.20
56729;DHT22;42612;52.232;7.560;2023-11-21T12:23:53;13.20;66.20
56729;DHT22;42612;52.232;7.560;2023-11-21T12:26:18;13.20;66.30
56729;DHT22;42612;52.232;7.560;2023-11-21T12:28:52;13.20;66.30
56729;DHT22;42612;52.232;7.560;2023-11-21T12:31:23;13.20;66.00
56729;DHT22;42612;52.232;7.560;2023-11-21T12:33:50;13.20;66.20
56729;DHT22;42612;52.232;7.560;2023-11-21T12:36:16;13.20;66.10
56729;DHT22;42612;52.232;7.560;2023-11-21T12:38:42;13.20;66.10
56729;DHT22;42612;52.232;7.560;2023-11-21T12:41:10;13.20;66.10
56729;DHT22;42612;52.232;7.560;2023-11-21T12:43:36;13.20;66.00
56729;DHT22;42612;52.232;7.560;2023-11-21T12:46:08;13.20;65.80
56729;DHT22;42612;52.232;7.560;2023-11-21T12:48:39;13.20;65.60
56729;DHT22;42612;52.232;7.560;2023-11-21T12:51:09;13.20;65.60
56729;DHT22;42612;52.232;7.560;2023-11-21T12:53:40;13.20;65.60
56729;DHT22;42612;52.232;7.560;2023-11-21T12:56:11;13.20;65.50
56729;DHT22;42612;52.232;7.560;2023-11-21T12:58:38;13.20;65.20
56729;DHT22;42612;52.232;7.560;2023-11-21T13:01:05;13.10;65.00
56729;DHT22;42612;52.232;7.560;2023-11-21T13:03:37;13.20;64.80
56729;DHT22;42612;52.232;7.560;2023-11-21T13:06:05;13.10;65.00
56729;DHT22;42612;52.232;7.560;2023-11-21T13:08:31;13.20;65.00
56729;DHT22;42612;52.232;7.560;2023-11-21T13:10:58;13.10;64.80
56729;DHT22;42612;52.232;7.560;2023-11-21T13:13:26;13.10;64.70
56729;DHT22;42612;52.232;7.560;2023-11-21T13:16:02;13.10;64.70
56729;DHT22;42612;52.232;7.560;2023-11-21T13:18:31;13.10;64.40
56729;DHT22;42612;52.232;7.560;2023-11-21T13:20:58;13.10;64.60
56729;DHT22;42612;52.232;7.560;2023-11-21T13:23:26;13.10;64.40
56729;DHT22;42612;52.232;7.560;2023-11-21T13:25:53;13.10;64.30
56729;DHT22;42612;52.232;7.560;2023-11-21T13:28:19;13.10;64.10
56729;DHT22;42612;52.232;7.560;2023-11-21T13:30:47;13.10;64.00
56729;DHT22;42612;52.232;7.560;2023-11-21T13:33:14;13.10;64.00
56729;DHT22;42612;52.232;7.560;2023-11-21T13:35:53;13.10;63.70
56729;DHT22;42612;52.232;7.560;2023-11-21T13:38:18;13.10;63.60
56729;DHT22;42612;52.232;7.560;2023-11-21T13:40:49;13.10;63.50
56729;DHT22;42612;52.232;7.560;2023-11-21T13:43:20;13.10;63.30
56729;DHT22;42612;52.232;7.560;2023-11-21T13:45:54;13.10;63.30
56729;DHT22;42612;52.232;7.560;2023-11-21T13:48:32;13.00;63.20
56729;DHT22;42612;52.232;7.560;2023-11-21T13:51:21;13.00;63.30
56729;DHT22;42612;52.232;7.560;2023-11-21T13:53:56;13.10;63.40
56729;DHT22;42612;52.232;7.560;2023-11-21T13:56:22;13.10;63.40
56729;DHT22;42612;52.232;7.560;2023-11-21T13:58:52;13.00;63.30
56729;DHT22;42612;52.232;7.560;2023-11-21T14:01:20;13.10;63.00
56729;DHT22;42612;52.232;7.560;2023-11-21T14:03:59;13.10;62.90
56729;DHT22;42612;52.232;7.560;2023-11-21T14:06:42;13.10;62.80
56729;DHT22;42612;52.232;7.560;2023-11-21T14:09:17;13.00;62.80
56729;DHT22;42612;52.232;7.560;2023-11-21T14:11:55;13.00;62.90
56729;DHT22;42612;52.232;7.560;2023-11-21T14:14:25;13.00;62.60
56729;DHT22;42612;52.232;7.560;2023-11-21T14:16:53;13.00;62.90
56729;DHT22;42612;52.232;7.560;2023-11-21T14:19:21;13.00;62.90
56729;DHT22;42612;52.232;7.560;2023-11-21T14:21:47;13.00;62.70
56729;DHT22;42612;52.232;7.560;2023-11-21T14:24:16;13.00;62.70
56729;DHT22;42612;52.232;7.560;2023-11-21T14:26:46;13.00;62.60
56729;DHT22;42612;52.232;7.560;2023-11-21T14:29:12;13.00;62.60
56729;DHT22;42612;52.232;7.560;2023-11-21T14:31:41;13.00;62.60
56729;DHT22;42612;52.232;7.560;2023-11-21T14:34:07;13.00;62.60
56729;DHT22;42612;52.232;7.560;2023-11-21T14:36:34;13.00;62.60
56729;DHT22;42612;52.232;7.560;2023-11-21T14:39:02;13.00;62.50
56729;DHT22;42612;52.232;7.560;2023-11-21T14:41:32;13.00;62.40
56729;DHT22;42612;52.232;7.560;2023-11-21T14:44:00;13.00;62.40
56729;DHT22;42612;52.232;7.560;2023-11-21T14:46:28;13.00;62.90
56729;DHT22;42612;52.232;7.560;2023-11-21T14:48:53;13.00;62.10
56729;DHT22;42612;52.232;7.560;2023-11-21T14:51:39;12.90;62.10
56729;DHT22;42612;52.232;7.560;2023-11-21T14:54:31;12.90;62.30
56729;DHT22;42612;52.232;7.560;2023-11-21T14:57:09;12.90;62.20
56729;DHT22;42612;52.232;7.560;2023-11-21T14:59:42;12.90;62.10
56729;DHT22;42612;52.232;7.560;2023-11-21T15:02:10;12.90;62.20
56729;DHT22;42612;52.232;7.560;2023-11-21T15:04:46;12.90;62.20
56729;DHT22;42612;52.232;7.560;2023-11-21T15:07:12;12.90;62.20
56729;DHT22;42612;52.232;7.560;2023-11-21T15:09:38;12.80;62.20
56729;DHT22;42612;52.232;7.560;2023-11-21T15:12:08;12.80;62.20
56729;DHT22;42612;52.232;7.560;2023-11-21T15:14:51;12.80;62.20
56729;DHT22;42612;52.232;7.560;2023-11-21T15:17:22;12.80;62.00
56729;DHT22;42612;52.232;7.560;2023-11-21T15:19:52;12.90;62.20
56729;DHT22;42612;52.232;7.560;2023-11-21T15:22:18;12.80;62.10
56729;DHT22;42612;52.232;7.560;2023-11-21T15:24:45;12.80;62.10
56729;DHT22;42612;52.232;7.560;2023-11-21T15:27:13;12.80;62.10
56729;DHT22;42612;52.232;7.560;2023-11-21T15:29:39;12.80;62.10
56729;DHT22;42612;52.232;7.560;2023-11-21T15:32:06;12.80;62.10
56729;DHT22;42612;52.232;7.560;2023-11-21T15:34:33;12.80;62.00
56729;DHT22;42612;52.232;7.560;2023-11-21T15:36:59;12.80;62.00
56729;DHT22;42612;52.232;7.560;2023-11-21T15:39:25;12.80;61.90
56729;DHT22;42612;52.232;7.560;2023-11-21T15:41:54;12.80;61.80
56729;DHT22;42612;52.232;7.560;2023-11-21T15:44:20;12.80;61.80
56729;DHT22;42612;52.232;7.560;2023-11-21T15:46:46;12.80;61.70
56729;DHT22;42612;52.232;7.560;2023-11-21T15:49:13;12.80;61.60
56729;DHT22;42612;52.232;7.560;2023-11-21T15:51:42;12.80;61.60